Time;durP1;ratioP1;P1;durP2;ratioP2;P2;SDS_P1;SDS_P2;PMS_P1;PMS_P2;Temp;Humidity;BMP_temperature;BMP_pressure;BME280_temperature;BME280_humidity;BME280_pressure;Samples;Min_cycle;Max_cycle;Signal;HPM_P1;HPM_P2
2023/06/18 00:01:47;;;;;;;9.02;6.68;;;14.10;99.90;;;;;;7343873;32;20117;-55
2023/06/18 00:05:49;;;;;;;7.95;6.35;;;14.00;99.90;;;;;;7351692;32;20143;-55
2023/06/18 00:09:51;;;;;;;10.05;5.95;;;13.90;99.90;;;;;;7350351;32;20155;-55
2023/06/18 00:13:52;;;;;;;9.43;7.07;;;13.90;99.90;;;;;;7349099;32;20119;-56
2023/06/18 00:17:55;;;;;;;7.78;6.32;;;13.80;99.90;;;;;;7341443;32;20293;-55
2023/06/18 00:21:59;;;;;;;11.18;5.80;;;13.80;99.90;;;;;;7352500;32;20138;-55
2023/06/18 00:26:00;;;;;;;10.65;6.70;;;13.80;99.90;;;;;;7346859;32;20226;-55
2023/06/18 00:30:04;;;;;;;9.43;6.18;;;13.70;99.90;;;;;;7347655;32;20422;-56
2023/06/18 00:34:06;;;;;;;9.60;6.47;;;13.70;99.90;;;;;;7346515;32;20129;-55
2023/06/18 00:38:09;;;;;;;10.07;6.12;;;13.70;99.90;;;;;;7352085;32;20388;-55
2023/06/18 00:42:11;;;;;;;10.70;6.47;;;13.60;99.90;;;;;;7352404;32;20498;-55
2023/06/18 00:46:13;;;;;;;9.05;6.10;;;13.60;99.90;;;;;;7346295;32;20218;-56
2023/06/18 00:50:17;;;;;;;7.43;6.03;;;13.50;99.90;;;;;;7342870;32;20219;-55
2023/06/18 00:54:19;;;;;;;9.75;6.35;;;13.50;99.90;;;;;;7347116;32;20233;-55
2023/06/18 00:58:23;;;;;;;7.93;6.20;;;13.50;99.90;;;;;;7349617;32;20571;-55
2023/06/18 01:02:25;;;;;;;11.23;6.68;;;13.40;99.90;;;;;;7346188;32;20198;-55
2023/06/18 01:06:34;;;;;;;7.22;6.40;;;13.30;99.90;;;;;;7347240;32;20235;-55
2023/06/18 01:10:39;;;;;;;9.43;5.90;;;13.20;99.90;;;;;;7350909;32;20221;-55
2023/06/18 01:14:50;;;;;;;7.75;5.70;;;13.20;99.90;;;;;;7344350;32;20295;-55
2023/06/18 01:18:54;;;;;;;9.45;6.85;;;13.20;99.90;;;;;;7345035;32;20186;-55
2023/06/18 01:23:01;;;;;;;8.45;6.55;;;13.10;99.90;;;;;;7346233;32;20570;-55
2023/06/18 01:27:04;;;;;;;7.97;6.07;;;13.10;99.90;;;;;;7346442;32;20103;-56
2023/06/18 01:31:06;;;;;;;13.45;6.00;;;13.00;99.90;;;;;;7343978;32;20226;-55
2023/06/18 01:35:16;;;;;;;7.32;6.22;;;13.10;99.90;;;;;;7350542;32;20130;-55
2023/06/18 01:39:31;;;;;;;10.13;6.62;;;13.00;99.90;;;;;;7343168;32;20108;-56
2023/06/18 01:43:38;;;;;;;8.25;6.43;;;12.90;99.90;;;;;;7341703;32;20689;-55
2023/06/18 01:47:42;;;;;;;9.43;6.53;;;12.80;99.90;;;;;;7349947;32;20164;-55
2023/06/18 01:51:45;;;;;;;8.40;6.35;;;12.90;99.90;;;;;;7343878;32;20111;-55
2023/06/18 01:55:51;;;;;;;13.48;7.32;;;12.80;99.90;;;;;;7342559;32;20263;-55
2023/06/18 01:59:53;;;;;;;9.25;6.20;;;12.80;99.90;;;;;;7345841;32;20230;-55
2023/06/18 02:03:55;;;;;;;10.63;6.68;;;12.70;99.90;;;;;;7335792;32;20374;-55
2023/06/18 02:07:57;;;;;;;9.32;6.28;;;12.60;99.90;;;;;;7345882;32;20229;-55
2023/06/18 02:11:59;;;;;;;11.90;6.62;;;12.60;99.90;;;;;;7347467;32;20227;-55
2023/06/18 02:16:01;;;;;;;12.20;6.25;;;12.50;99.90;;;;;;7340811;32;20400;-55
2023/06/18 02:20:03;;;;;;;12.15;6.75;;;12.40;99.90;;;;;;7348841;32;20314;-55
2023/06/18 02:24:05;;;;;;;9.20;6.28;;;12.40;99.90;;;;;;7345970;32;20198;-55
2023/06/18 02:28:07;;;;;;;8.93;6.90;;;12.40;99.90;;;;;;7345176;32;20141;-55
2023/06/18 02:32:09;;;;;;;9.82;6.50;;;12.30;99.90;;;;;;7349124;32;20099;-55
2023/06/18 02:36:12;;;;;;;10.48;6.20;;;12.40;99.90;;;;;;7346004;32;20298;-55
2023/06/18 02:40:14;;;;;;;7.10;5.97;;;12.30;99.90;;;;;;7346410;32;20830;-55
2023/06/18 02:44:16;;;;;;;10.40;7.05;;;12.30;99.90;;;;;;7348484;32;20111;-55
2023/06/18 02:48:18;;;;;;;8.70;6.32;;;12.20;99.90;;;;;;7345732;32;20091;-55
2023/06/18 02:52:20;;;;;;;8.85;5.90;;;12.10;99.90;;;;;;7349772;32;20171;-55
2023/06/18 02:56:21;;;;;;;8.55;6.65;;;12.30;99.90;;;;;;7336645;32;20234;-55
2023/06/18 03:00:23;;;;;;;7.53;6.03;;;12.10;99.90;;;;;;7345346;32;20335;-55
2023/06/18 03:04:25;;;;;;;7.68;6.30;;;12.10;99.90;;;;;;7348125;32;20265;-55
2023/06/18 03:08:27;;;;;;;10.40;6.37;;;12.00;99.90;;;;;;7343020;32;20178;-55
2023/06/18 03:12:29;;;;;;;8.80;6.10;;;12.10;99.90;;;;;;7342878;32;20710;-55
2023/06/18 03:16:31;;;;;;;8.95;5.85;;;12.10;99.90;;;;;;7342739;32;20115;-55
2023/06/18 03:20:34;;;;;;;7.82;6.00;;;12.10;99.90;;;;;;7344156;32;20464;-56
2023/06/18 03:24:38;;;;;;;8.07;6.25;;;12.10;99.90;;;;;;7345831;32;20222;-55
2023/06/18 03:28:40;;;;;;;8.07;6.50;;;12.10;99.90;;;;;;7347340;32;20169;-55
2023/06/18 03:32:43;;;;;;;11.12;7.35;;;12.00;99.90;;;;;;7343611;32;20127;-56
2023/06/18 03:36:46;;;;;;;8.52;6.75;;;12.10;99.90;;;;;;7349819;32;20111;-55
2023/06/18 03:40:48;;;;;;;8.70;6.00;;;12.10;99.90;;;;;;7353938;32;20534;-55
2023/06/18 03:44:50;;;;;;;12.02;6.03;;;12.20;99.90;;;;;;7349558;32;20129;-55
2023/06/18 03:48:52;;;;;;;9.77;6.25;;;12.10;99.90;;;;;;7353513;32;20103;-55
2023/06/18 03:52:53;;;;;;;8.98;6.37;;;12.10;99.90;;;;;;7351598;32;20104;-55
2023/06/18 03:56:55;;;;;;;8.07;6.37;;;12.20;99.90;;;;;;7352006;32;20653;-55
2023/06/18 04:00:57;;;;;;;13.15;6.75;;;12.30;99.90;;;;;;7351856;32;20171;-56
2023/06/18 04:04:59;;;;;;;8.95;6.28;;;12.30;99.90;;;;;;7349176;32;20704;-55
2023/06/18 04:09:01;;;;;;;9.88;6.07;;;12.40;99.90;;;;;;7351340;32;20727;-55
2023/06/18 04:13:02;;;;;;;11.02;6.32;;;12.40;99.90;;;;;;7351946;32;20103;-55
2023/06/18 04:17:04;;;;;;;13.15;6.53;;;12.50;99.90;;;;;;7346802;32;20724;-55
2023/06/18 04:21:06;;;;;;;7.57;6.37;;;12.60;99.90;;;;;;7348872;32;20569;-55
2023/06/18 04:25:08;;;;;;;7.85;6.62;;;12.70;99.90;;;;;;7347697;32;20111;-55
2023/06/18 04:29:10;;;;;;;11.15;6.43;;;12.80;99.90;;;;;;7348358;32;20169;-55
2023/06/18 04:33:12;;;;;;;6.75;6.00;;;12.90;99.90;;;;;;7351356;32;20552;-56
2023/06/18 04:37:13;;;;;;;10.05;6.25;;;13.10;99.90;;;;;;7349156;32;20179;-55
2023/06/18 04:41:15;;;;;;;7.57;6.18;;;13.40;99.90;;;;;;7352581;32;21560;-55
2023/06/18 04:45:17;;;;;;;8.07;6.20;;;13.60;99.90;;;;;;7349299;32;20179;-55
2023/06/18 04:49:18;;;;;;;8.15;5.68;;;13.90;99.90;;;;;;7350306;32;20111;-55
2023/06/18 04:53:21;;;;;;;9.23;6.57;;;14.20;99.90;;;;;;7351774;32;20115;-54
2023/06/18 04:57:23;;;;;;;8.68;5.80;;;14.60;99.90;;;;;;7347765;32;20112;-55
2023/06/18 05:01:25;;;;;;;7.90;5.43;;;15.10;99.90;;;;;;7345785;32;20745;-56
2023/06/18 05:05:27;;;;;;;10.43;6.20;;;15.70;99.90;;;;;;7348686;32;20111;-55
2023/06/18 05:09:30;;;;;;;6.97;5.82;;;16.30;99.90;;;;;;7342371;32;20670;-55
2023/06/18 05:13:31;;;;;;;12.68;5.70;;;16.90;99.90;;;;;;7342153;32;20200;-55
2023/06/18 05:17:34;;;;;;;12.93;5.72;;;17.20;99.90;;;;;;7345796;32;20682;-56
2023/06/18 05:21:36;;;;;;;8.60;5.97;;;17.60;99.90;;;;;;7344502;32;20182;-54
2023/06/18 05:25:38;;;;;;;11.60;6.18;;;17.90;99.90;;;;;;7348438;32;20100;-53
2023/06/18 05:29:40;;;;;;;10.88;5.97;;;18.20;99.90;;;;;;7350284;32;20196;-56
2023/06/18 05:33:42;;;;;;;9.50;5.95;;;18.40;99.90;;;;;;7349132;32;20168;-55
2023/06/18 05:37:44;;;;;;;8.52;6.37;;;18.70;99.90;;;;;;7347221;32;20122;-56
2023/06/18 05:41:45;;;;;;;10.65;6.15;;;18.80;99.90;;;;;;7348057;32;20260;-55
2023/06/18 05:45:47;;;;;;;7.62;6.45;;;19.00;99.90;;;;;;7344770;32;20104;-55
2023/06/18 05:49:49;;;;;;;8.43;6.47;;;19.30;99.90;;;;;;7343053;32;20134;-54
2023/06/18 05:53:51;;;;;;;6.95;6.18;;;19.60;99.90;;;;;;7343229;32;20149;-55
2023/06/18 05:57:52;;;;;;;10.35;5.62;;;19.90;99.90;;;;;;7348703;32;20190;-57
2023/06/18 06:01:54;;;;;;;8.77;5.82;;;20.20;99.90;;;;;;7346247;32;20115;-56
2023/06/18 06:05:57;;;;;;;11.45;5.90;;;20.40;99.90;;;;;;7347517;32;20103;-55
2023/06/18 06:09:58;;;;;;;8.65;5.70;;;20.70;99.90;;;;;;7343215;32;20111;-55
2023/06/18 06:14:00;;;;;;;8.98;5.50;;;21.20;99.90;;;;;;7343523;32;20280;-55
2023/06/18 06:18:02;;;;;;;7.95;5.93;;;21.60;99.90;;;;;;7346043;32;20169;-56
2023/06/18 06:22:04;;;;;;;8.73;5.55;;;21.90;99.90;;;;;;7350718;32;20111;-55
2023/06/18 06:26:06;;;;;;;8.48;5.85;;;22.30;99.90;;;;;;7343161;32;20250;-55
2023/06/18 06:30:08;;;;;;;7.37;5.62;;;22.80;99.90;;;;;;7344952;32;20125;-55
2023/06/18 06:34:10;;;;;;;7.75;5.47;;;23.40;99.90;;;;;;7343051;32;20260;-56
2023/06/18 06:38:12;;;;;;;7.28;5.60;;;23.70;99.90;;;;;;7345454;32;20836;-58
2023/06/18 06:42:14;;;;;;;7.50;5.70;;;23.80;99.90;;;;;;7346229;32;20119;-57
2023/06/18 06:46:15;;;;;;;6.18;5.45;;;23.90;99.90;;;;;;7348756;32;20171;-57
2023/06/18 06:50:17;;;;;;;5.68;5.12;;;23.70;99.90;;;;;;7346390;32;20131;-58
2023/06/18 06:54:19;;;;;;;7.03;5.30;;;23.40;99.90;;;;;;7349296;32;20802;-57
2023/06/18 06:58:21;;;;;;;5.57;5.07;;;23.10;99.90;;;;;;7344211;32;20368;-58
2023/06/18 07:02:23;;;;;;;7.97;5.70;;;22.90;99.90;;;;;;7349891;32;20111;-57
2023/06/18 07:06:25;;;;;;;6.12;5.53;;;22.80;99.90;;;;;;7344618;32;20118;-57
2023/06/18 07:10:26;;;;;;;7.07;5.75;;;22.70;99.90;;;;;;7334161;32;20495;-55
2023/06/18 07:14:28;;;;;;;8.30;5.53;;;22.60;99.90;;;;;;7346342;32;20612;-57
2023/06/18 07:18:30;;;;;;;10.02;5.45;;;22.60;99.90;;;;;;7355350;32;20310;-59
2023/06/18 07:22:31;;;;;;;7.90;6.00;;;22.70;99.90;;;;;;7344461;32;20254;-59
2023/06/18 07:26:33;;;;;;;7.78;5.03;;;22.90;99.90;;;;;;7346426;32;20132;-58
2023/06/18 07:30:35;;;;;;;5.37;4.87;;;23.20;99.90;;;;;;7347967;32;20242;-57
2023/06/18 07:34:36;;;;;;;9.27;4.80;;;23.30;99.90;;;;;;7349207;32;20202;-57
2023/06/18 07:38:38;;;;;;;5.93;5.30;;;23.50;99.90;;;;;;7349225;32;20190;-57
2023/06/18 07:42:40;;;;;;;6.60;5.28;;;23.60;99.90;;;;;;7354131;32;21259;-54
2023/06/18 07:46:43;;;;;;;6.62;5.15;;;23.80;99.90;;;;;;7352469;32;20170;-58
2023/06/18 07:50:45;;;;;;;6.12;5.25;;;23.90;99.90;;;;;;7352034;32;20174;-57
2023/06/18 07:54:46;;;;;;;7.20;5.37;;;24.10;99.90;;;;;;7352551;32;20199;-56
2023/06/18 07:58:48;;;;;;;6.72;5.20;;;24.20;99.90;;;;;;7356002;32;20160;-57
2023/06/18 08:02:50;;;;;;;6.00;5.20;;;24.40;99.90;;;;;;7354623;32;20103;-57
2023/06/18 08:06:52;;;;;;;6.43;5.25;;;24.60;99.90;;;;;;7357204;32;20107;-59
2023/06/18 08:10:53;;;;;;;8.68;5.53;;;24.80;99.60;;;;;;7354907;32;20278;-57
2023/06/18 08:14:55;;;;;;;10.07;5.22;;;24.90;96.90;;;;;;7354534;32;20107;-58
2023/06/18 08:18:57;;;;;;;7.87;5.15;;;25.20;96.80;;;;;;7355910;32;20281;-57
2023/06/18 08:22:58;;;;;;;10.70;6.00;;;25.30;95.50;;;;;;7351542;32;20168;-57
2023/06/18 08:27:00;;;;;;;6.00;5.20;;;25.50;96.40;;;;;;7347568;32;20242;-56
2023/06/18 08:31:02;;;;;;;5.60;5.10;;;25.50;99.90;;;;;;7351587;32;20568;-59
2023/06/18 08:35:05;;;;;;;9.57;5.18;;;25.80;95.60;;;;;;7346064;32;20115;-57
2023/06/18 08:39:07;;;;;;;5.32;4.82;;;26.10;96.80;;;;;;7348476;32;20238;-57
2023/06/18 08:43:12;;;;;;;5.80;4.90;;;26.30;94.00;;;;;;7350967;32;20211;-57
2023/06/18 08:47:15;;;;;;;6.57;4.82;;;26.70;92.60;;;;;;7343697;32;20113;-57
2023/06/18 08:51:18;;;;;;;5.70;4.65;;;26.80;90.60;;;;;;7349501;32;20281;-57
2023/06/18 08:55:20;;;;;;;6.62;5.32;;;27.20;91.90;;;;;;7339551;32;20249;-57
2023/06/18 08:59:23;;;;;;;8.07;5.15;;;27.30;89.50;;;;;;7342886;32;20152;-58
2023/06/18 09:03:25;;;;;;;6.25;5.05;;;27.30;88.30;;;;;;7352212;32;20493;-57
2023/06/18 09:07:27;;;;;;;7.70;4.68;;;27.30;81.30;;;;;;7348869;32;20210;-57
2023/06/18 09:11:30;;;;;;;6.22;5.03;;;27.30;80.30;;;;;;7349888;32;20233;-57
2023/06/18 09:15:38;;;;;;;8.48;5.12;;;27.40;78.10;;;;;;7347451;32;20214;-58
2023/06/18 09:19:40;;;;;;;7.62;4.50;;;27.70;77.80;;;;;;7347436;32;20143;-57
2023/06/18 09:23:53;;;;;;;8.85;4.93;;;27.90;76.80;;;;;;7344773;32;21001;-58
2023/06/18 09:27:55;;;;;;;6.28;4.62;;;28.20;84.20;;;;;;7347654;32;20134;-57
2023/06/18 09:32:11;;;;;;;5.22;4.72;;;28.50;73.70;;;;;;7346006;32;20337;-57
2023/06/18 09:36:13;;;;;;;8.35;4.85;;;29.10;66.90;;;;;;7344003;32;20143;-57
2023/06/18 09:40:17;;;;;;;7.97;5.15;;;29.70;69.30;;;;;;7343712;32;20116;-57
2023/06/18 09:44:20;;;;;;;6.75;4.10;;;29.90;67.30;;;;;;7346484;32;20582;-58
2023/06/18 09:48:23;;;;;;;5.60;4.65;;;30.00;60.50;;;;;;7341794;32;20580;-59
2023/06/18 09:52:26;;;;;;;4.62;4.10;;;30.00;67.60;;;;;;7340033;32;20131;-55
2023/06/18 09:56:28;;;;;;;6.72;4.87;;;29.80;64.60;;;;;;7336363;32;20168;-57
2023/06/18 10:00:30;;;;;;;5.65;4.60;;;29.60;60.50;;;;;;7351016;32;20111;-56
2023/06/18 10:04:33;;;;;;;6.15;5.25;;;29.50;60.70;;;;;;7343610;32;20138;-56
2023/06/18 10:08:38;;;;;;;9.52;5.53;;;29.30;61.00;;;;;;7344373;32;20521;-58
2023/06/18 10:12:44;;;;;;;8.57;5.43;;;29.30;60.30;;;;;;7348593;32;20127;-57
2023/06/18 10:16:50;;;;;;;9.27;6.23;;;29.60;62.10;;;;;;7346740;32;20116;-57
2023/06/18 10:20:56;;;;;;;11.23;5.65;;;30.10;58.80;;;;;;7348026;32;20153;-56
2023/06/18 10:25:05;;;;;;;9.75;5.68;;;30.00;58.10;;;;;;7345715;32;20266;-56
2023/06/18 10:29:10;;;;;;;6.80;5.50;;;30.40;57.80;;;;;;7347609;32;20436;-57
2023/06/18 10:33:12;;;;;;;7.45;5.12;;;30.80;61.70;;;;;;7347543;32;20103;-57
2023/06/18 10:37:15;;;;;;;5.72;5.10;;;30.90;53.70;;;;;;7341973;32;20118;-57
2023/06/18 10:41:20;;;;;;;8.07;6.20;;;30.80;58.00;;;;;;7346297;32;20102;-57
2023/06/18 10:45:23;;;;;;;6.78;4.95;;;31.20;58.80;;;;;;7346979;32;20538;-58
2023/06/18 10:49:25;;;;;;;5.10;4.40;;;31.90;58.60;;;;;;7341337;32;20110;-57
2023/06/18 10:53:26;;;;;;;7.05;5.12;;;32.10;51.70;;;;;;7340881;32;20178;-59
2023/06/18 10:57:28;;;;;;;7.60;4.60;;;31.90;52.70;;;;;;7347161;32;20206;-57
2023/06/18 11:01:31;;;;;;;6.32;3.80;;;31.80;51.90;;;;;;7341334;32;20292;-58
2023/06/18 11:05:36;;;;;;;4.90;4.10;;;31.60;50.20;;;;;;7343188;32;20115;-57
2023/06/18 11:09:47;;;;;;;6.03;4.12;;;31.10;44.60;;;;;;7343768;32;20290;-58
2023/06/18 11:13:58;;;;;;;4.90;4.07;;;30.80;51.00;;;;;;7338653;32;20127;-57
2023/06/18 11:18:03;;;;;;;6.12;4.00;;;30.40;48.50;;;;;;7344214;32;20156;-58
2023/06/18 11:22:05;;;;;;;5.68;4.18;;;29.80;49.30;;;;;;7341375;32;20690;-57
2023/06/18 11:26:12;;;;;;;4.78;4.05;;;29.50;47.50;;;;;;7338865;32;20671;-58
2023/06/18 11:30:15;;;;;;;7.20;4.12;;;29.20;49.70;;;;;;7341252;32;20580;-58
2023/06/18 11:34:16;;;;;;;6.78;4.80;;;28.80;53.00;;;;;;7337802;32;20482;-58
2023/06/18 11:38:19;;;;;;;6.20;4.37;;;28.60;54.30;;;;;;7338356;32;20859;-57
2023/06/18 11:42:25;;;;;;;6.22;4.30;;;28.80;57.60;;;;;;7345776;32;20561;-57
2023/06/18 11:46:37;;;;;;;5.50;4.43;;;29.10;54.80;;;;;;7342958;32;20285;-58
2023/06/18 11:50:39;;;;;;;7.10;4.50;;;29.40;53.00;;;;;;7344202;32;20979;-57
2023/06/18 11:54:43;;;;;;;5.87;4.07;;;30.20;53.80;;;;;;7340244;32;20130;-57
2023/06/18 11:58:45;;;;;;;6.80;3.95;;;30.70;48.00;;;;;;7346784;32;20279;-54
2023/06/18 12:02:47;;;;;;;5.68;3.62;;;30.50;47.90;;;;;;7350119;32;20119;-57
2023/06/18 12:06:48;;;;;;;6.60;4.20;;;30.40;52.10;;;;;;7349167;32;20222;-58
2023/06/18 12:10:51;;;;;;;9.50;4.62;;;30.10;50.70;;;;;;7351148;32;20209;-57
2023/06/18 12:15:06;;;;;;;9.15;4.22;;;30.90;51.70;;;;;;7350910;32;20138;-57
2023/06/18 12:19:10;;;;;;;5.55;4.15;;;32.00;50.70;;;;;;7350563;32;20456;-58
2023/06/18 12:23:12;;;;;;;8.55;4.07;;;32.00;50.50;;;;;;7345440;32;20164;-57
2023/06/18 12:27:14;;;;;;;4.43;3.95;;;32.10;52.00;;;;;;7346289;32;20227;-58
2023/06/18 12:31:16;;;;;;;9.55;4.60;;;31.70;50.00;;;;;;7343583;32;20137;-60
2023/06/18 12:35:21;;;;;;;5.50;4.50;;;30.90;48.30;;;;;;7347771;32;20882;-56
2023/06/18 12:39:24;;;;;;;5.32;4.15;;;30.10;51.50;;;;;;7344918;32;20108;-56
2023/06/18 12:43:26;;;;;;;8.25;4.32;;;29.60;51.70;;;;;;7342889;32;20481;-57
2023/06/18 12:47:31;;;;;;;4.87;4.20;;;29.40;51.30;;;;;;7346048;32;20260;-56
2023/06/18 12:51:40;;;;;;;5.03;4.53;;;29.50;52.80;;;;;;7346369;32;20146;-57
2023/06/18 12:55:47;;;;;;;7.45;4.25;;;29.40;54.30;;;;;;7349343;32;20176;-58
2023/06/18 12:59:51;;;;;;;5.78;4.28;;;28.60;53.70;;;;;;7349779;32;20108;-57
2023/06/18 13:03:53;;;;;;;5.10;4.40;;;28.30;55.60;;;;;;7347192;32;20147;-57
2023/06/18 13:07:56;;;;;;;6.62;4.70;;;28.10;55.30;;;;;;7344660;32;20154;-56
2023/06/18 13:11:57;;;;;;;6.72;4.35;;;28.10;59.60;;;;;;7343476;32;20103;-57
2023/06/18 13:16:02;;;;;;;6.68;4.50;;;27.90;57.00;;;;;;7344647;32;20186;-57
2023/06/18 13:20:05;;;;;;;6.68;4.37;;;27.90;63.40;;;;;;7348291;32;20121;-57
2023/06/18 13:24:07;;;;;;;6.12;4.12;;;27.50;56.70;;;;;;7344421;32;20238;-56
2023/06/18 13:28:08;;;;;;;5.75;4.40;;;27.50;60.90;;;;;;7347344;32;20202;-56
2023/06/18 13:32:10;;;;;;;5.15;4.40;;;27.10;58.50;;;;;;7345295;32;20127;-57
2023/06/18 13:36:12;;;;;;;9.15;4.70;;;27.00;57.40;;;;;;7348610;32;20130;-57
2023/06/18 13:40:14;;;;;;;7.87;4.40;;;27.10;62.40;;;;;;7346787;32;20822;-57
2023/06/18 13:44:17;;;;;;;4.37;3.95;;;27.00;62.40;;;;;;7351189;32;20166;-56
2023/06/18 13:48:18;;;;;;;8.02;4.80;;;26.80;72.90;;;;;;7342264;32;20194;-57
2023/06/18 13:52:20;;;;;;;6.75;4.28;;;26.60;74.90;;;;;;7344157;32;20350;-56
2023/06/18 13:56:22;;;;;;;7.18;4.85;;;26.60;82.80;;;;;;7340988;32;20233;-57
2023/06/18 14:00:24;;;;;;;5.82;4.45;;;26.30;84.60;;;;;;7347960;32;20744;-57
2023/06/18 14:04:26;;;;;;;7.00;4.85;;;26.20;87.50;;;;;;7344416;32;20222;-56
2023/06/18 14:08:28;;;;;;;7.60;4.90;;;26.10;89.90;;;;;;7342656;32;20096;-57
2023/06/18 14:12:30;;;;;;;7.35;4.70;;;26.10;91.40;;;;;;7350100;32;20168;-56
2023/06/18 14:16:32;;;;;;;9.27;5.00;;;26.00;94.10;;;;;;7345006;32;20202;-55
2023/06/18 14:20:34;;;;;;;9.30;4.72;;;26.00;96.70;;;;;;7344144;32;20142;-56
2023/06/18 14:24:35;;;;;;;7.75;4.60;;;25.90;98.70;;;;;;7342245;32;20202;-56
2023/06/18 14:28:38;;;;;;;9.95;5.20;;;25.70;99.90;;;;;;7349670;32;20538;-56
2023/06/18 14:32:40;;;;;;;8.07;4.65;;;25.40;99.90;;;;;;7344480;32;20127;-57
2023/06/18 14:36:41;;;;;;;9.02;5.40;;;25.30;99.90;;;;;;7344865;32;20253;-56
2023/06/18 14:40:43;;;;;;;6.82;4.50;;;25.30;99.90;;;;;;7343833;32;20464;-57
2023/06/18 14:44:45;;;;;;;6.80;6.18;;;25.30;99.90;;;;;;7349460;32;20153;-57
2023/06/18 14:48:47;;;;;;;11.20;6.05;;;25.00;99.90;;;;;;7342250;32;20119;-56
2023/06/18 14:52:48;;;;;;;6.70;5.57;;;25.00;99.90;;;;;;7341505;32;20194;-56
2023/06/18 14:56:51;;;;;;;6.93;5.20;;;24.80;99.90;;;;;;7354831;32;20115;-57
2023/06/18 15:00:53;;;;;;;8.02;6.03;;;24.70;99.90;;;;;;7346318;32;20514;-58
2023/06/18 15:04:56;;;;;;;6.28;5.68;;;24.70;99.90;;;;;;7345007;32;20111;-59
2023/06/18 15:09:03;;;;;;;9.38;5.68;;;24.60;99.90;;;;;;7336422;32;20162;-58
2023/06/18 15:13:05;;;;;;;10.40;5.93;;;24.60;99.90;;;;;;7347915;32;20107;-57
2023/06/18 15:17:07;;;;;;;7.53;5.45;;;24.60;99.90;;;;;;7345041;32;20175;-58
2023/06/18 15:21:08;;;;;;;14.13;11.12;;;24.50;99.90;;;;;;7342737;32;20266;-58
2023/06/18 15:25:10;;;;;;;5.93;5.20;;;24.50;99.90;;;;;;7348831;32;20214;-59
2023/06/18 15:29:12;;;;;;;6.72;5.28;;;24.40;99.90;;;;;;7341795;32;20127;-59
2023/06/18 15:33:14;;;;;;;8.20;5.28;;;24.50;99.90;;;;;;7343605;32;20261;-58
2023/06/18 15:37:16;;;;;;;8.05;5.37;;;24.50;99.90;;;;;;7344090;32;20631;-58
2023/06/18 15:41:18;;;;;;;7.68;5.65;;;24.40;99.90;;;;;;7350424;32;20161;-58
2023/06/18 15:45:20;;;;;;;7.87;5.97;;;24.50;99.90;;;;;;7349236;32;20144;-56
2023/06/18 15:49:22;;;;;;;7.45;5.60;;;24.50;99.90;;;;;;7354923;32;20331;-59
2023/06/18 15:53:24;;;;;;;8.55;6.90;;;24.60;99.90;;;;;;7356890;32;20187;-57
2023/06/18 15:57:26;;;;;;;8.65;6.32;;;24.60;99.90;;;;;;7352171;32;20185;-57
2023/06/18 16:01:28;;;;;;;10.07;5.32;;;24.60;99.90;;;;;;7353209;32;20315;-57
2023/06/18 16:05:30;;;;;;;6.80;5.65;;;24.60;99.90;;;;;;7347791;32;20130;-57
2023/06/18 16:09:32;;;;;;;10.18;5.43;;;24.80;99.90;;;;;;7339440;32;20118;-57
2023/06/18 16:13:34;;;;;;;8.93;5.57;;;24.70;99.90;;;;;;7340081;32;20512;-57
2023/06/18 16:17:35;;;;;;;10.65;5.75;;;24.60;99.90;;;;;;7346693;32;20122;-57
2023/06/18 16:21:37;;;;;;;9.40;5.32;;;24.80;99.90;;;;;;7350006;32;20281;-56
2023/06/18 16:25:39;;;;;;;9.95;5.78;;;24.60;99.90;;;;;;7351559;32;21053;-56
2023/06/18 16:29:41;;;;;;;11.50;5.57;;;24.80;99.90;;;;;;7348364;32;20395;-56
2023/06/18 16:33:42;;;;;;;8.23;5.12;;;24.90;99.90;;;;;;7349227;32;20549;-58
2023/06/18 16:37:45;;;;;;;10.75;5.47;;;25.10;99.90;;;;;;7344388;32;20158;-57
2023/06/18 16:41:47;;;;;;;7.78;4.80;;;25.10;99.90;;;;;;7342900;32;20257;-58
2023/06/18 16:45:48;;;;;;;6.47;5.25;;;25.20;99.90;;;;;;7349515;32;20214;-57
2023/06/18 16:49:50;;;;;;;9.63;5.50;;;25.10;99.90;;;;;;7347710;32;20134;-56
2023/06/18 16:53:52;;;;;;;7.50;5.20;;;25.00;99.90;;;;;;7341707;32;20319;-57
2023/06/18 16:57:54;;;;;;;6.75;5.28;;;25.10;99.90;;;;;;7343708;32;20135;-56
2023/06/18 17:01:55;;;;;;;8.45;5.72;;;25.10;99.90;;;;;;7338677;32;20422;-56
2023/06/18 17:05:58;;;;;;;11.85;6.80;;;25.30;99.90;;;;;;7340918;32;20234;-56
2023/06/18 17:10:00;;;;;;;8.52;6.32;;;25.20;99.90;;;;;;7346121;32;20107;-57
2023/06/18 17:14:01;;;;;;;7.50;6.07;;;25.20;99.90;;;;;;7349765;32;20214;-55
2023/06/18 17:18:03;;;;;;;6.95;5.75;;;25.20;99.90;;;;;;7339844;32;20224;-57
2023/06/18 17:22:08;;;;;;;7.18;5.32;;;25.10;99.80;;;;;;7346322;32;20114;-57
2023/06/18 17:26:10;;;;;;;7.75;5.30;;;25.00;99.90;;;;;;7343153;32;20246;-57
2023/06/18 17:30:12;;;;;;;6.78;4.70;;;24.90;99.40;;;;;;7347562;32;20433;-57
2023/06/18 17:34:14;;;;;;;6.95;4.53;;;24.80;98.90;;;;;;7341892;32;20163;-56
2023/06/18 17:38:16;;;;;;;8.60;5.55;;;24.80;98.40;;;;;;7345006;32;20125;-57
2023/06/18 17:42:18;;;;;;;6.75;4.82;;;24.70;97.00;;;;;;7340877;32;20111;-56
2023/06/18 17:46:20;;;;;;;7.85;5.37;;;24.80;96.60;;;;;;7334244;32;20317;-57
2023/06/18 17:50:22;;;;;;;6.05;5.00;;;24.70;96.70;;;;;;7339357;32;20248;-57
2023/06/18 17:54:24;;;;;;;8.73;5.10;;;24.60;96.60;;;;;;7342868;32;20143;-57
2023/06/18 17:58:26;;;;;;;11.12;5.97;;;24.60;95.70;;;;;;7339973;32;20262;-57
2023/06/18 18:02:27;;;;;;;7.22;5.40;;;24.60;95.80;;;;;;7340496;32;20248;-57
2023/06/18 18:06:30;;;;;;;8.98;5.43;;;24.50;95.80;;;;;;7337950;32;20357;-57
2023/06/18 18:10:32;;;;;;;9.40;5.03;;;24.50;95.10;;;;;;7337946;32;20497;-58
2023/06/18 18:14:33;;;;;;;9.45;5.60;;;24.60;95.10;;;;;;7338367;32;20903;-57
2023/06/18 18:18:35;;;;;;;7.60;5.87;;;24.40;95.50;;;;;;7338338;32;20229;-58
2023/06/18 18:22:37;;;;;;;7.75;5.35;;;24.30;95.70;;;;;;7338185;32;20843;-57
2023/06/18 18:26:39;;;;;;;9.18;5.55;;;24.30;96.10;;;;;;7338964;32;20573;-57
2023/06/18 18:30:49;;;;;;;6.22;5.12;;;24.30;95.80;;;;;;7339898;32;20620;-56
2023/06/18 18:34:51;;;;;;;7.95;5.45;;;24.20;96.20;;;;;;7337409;32;20214;-57
2023/06/18 18:38:53;;;;;;;6.55;5.57;;;24.10;96.00;;;;;;7340200;32;20248;-57
2023/06/18 18:42:54;;;;;;;7.78;5.87;;;24.10;96.40;;;;;;7343234;32;20323;-56
2023/06/18 18:46:58;;;;;;;9.40;6.10;;;24.10;96.10;;;;;;7348925;32;20137;-56
2023/06/18 18:50:59;;;;;;;7.68;5.82;;;24.10;95.50;;;;;;7339525;32;20436;-57
2023/06/18 18:55:01;;;;;;;7.30;5.70;;;24.00;95.50;;;;;;7340433;32;20807;-57
2023/06/18 18:59:03;;;;;;;6.90;5.20;;;24.00;96.00;;;;;;7338389;32;20229;-57
2023/06/18 19:03:05;;;;;;;6.80;5.87;;;24.00;95.90;;;;;;7341289;32;20107;-57
2023/06/18 19:07:10;;;;;;;8.18;5.90;;;23.90;96.10;;;;;;7348338;32;20122;-58
2023/06/18 19:11:12;;;;;;;7.35;5.45;;;23.80;95.80;;;;;;7348616;32;20580;-58
2023/06/18 19:15:14;;;;;;;6.95;5.35;;;23.80;95.90;;;;;;7346946;32;20104;-58
2023/06/18 19:19:15;;;;;;;10.13;6.12;;;23.70;95.60;;;;;;7340849;32;20103;-58
2023/06/18 19:23:17;;;;;;;7.00;5.75;;;23.70;95.30;;;;;;7337180;32;20375;-57
2023/06/18 19:27:19;;;;;;;7.35;6.03;;;23.70;94.80;;;;;;7345525;32;20165;-57
2023/06/18 19:31:20;;;;;;;7.82;5.93;;;23.80;94.60;;;;;;7354321;32;20168;-58
2023/06/18 19:35:23;;;;;;;6.57;5.72;;;23.80;94.50;;;;;;7351034;32;20741;-59
2023/06/18 19:39:25;;;;;;;11.73;6.00;;;23.70;94.60;;;;;;7345309;32;20167;-57
2023/06/18 19:43:26;;;;;;;7.70;5.87;;;23.70;94.70;;;;;;7345110;32;20463;-58
2023/06/18 19:47:29;;;;;;;7.03;6.30;;;23.70;94.80;;;;;;7342286;32;20174;-58
2023/06/18 19:51:31;;;;;;;8.15;6.03;;;23.70;95.00;;;;;;7335136;32;20107;-57
2023/06/18 19:55:33;;;;;;;7.50;6.70;;;23.60;94.90;;;;;;7336373;32;20251;-59
2023/06/18 19:59:34;;;;;;;8.20;6.50;;;23.70;94.80;;;;;;7336609;32;20300;-58
2023/06/18 20:03:38;;;;;;;7.32;6.50;;;23.70;94.60;;;;;;7339037;32;20289;-57
2023/06/18 20:07:40;;;;;;;9.60;6.50;;;23.60;95.00;;;;;;7334846;32;20438;-56
2023/06/18 20:11:41;;;;;;;7.97;6.53;;;23.60;94.90;;;;;;7335636;32;20238;-56
2023/06/18 20:15:44;;;;;;;8.35;6.82;;;23.60;95.20;;;;;;7336194;32;20295;-56
2023/06/18 20:19:46;;;;;;;13.50;6.70;;;23.70;94.70;;;;;;7341949;32;20182;-57
2023/06/18 20:23:48;;;;;;;7.47;6.32;;;23.80;94.40;;;;;;7339327;32;20130;-56
2023/06/18 20:27:49;;;;;;;7.50;6.53;;;23.80;94.20;;;;;;7340297;32;20207;-55
2023/06/18 20:31:51;;;;;;;7.80;6.18;;;23.70;94.50;;;;;;7345269;32;20156;-56
2023/06/18 20:35:55;;;;;;;7.50;6.70;;;23.70;94.50;;;;;;7342569;32;20159;-55
2023/06/18 20:39:57;;;;;;;7.05;6.45;;;23.80;94.80;;;;;;7340323;32;20671;-56
2023/06/18 20:44:03;;;;;;;7.53;6.82;;;23.70;94.60;;;;;;7344631;32;20122;-56
2023/06/18 20:48:05;;;;;;;9.48;7.00;;;23.70;94.80;;;;;;7348156;32;20342;-57
2023/06/18 20:52:07;;;;;;;7.20;6.50;;;23.70;94.70;;;;;;7349760;32;20206;-56
2023/06/18 20:56:09;;;;;;;9.73;6.55;;;23.60;94.50;;;;;;7340732;32;20214;-56
2023/06/18 21:00:11;;;;;;;7.32;6.62;;;23.70;94.70;;;;;;7346027;32;20127;-56